sensor_id;sensor_type;location;lat;lon;timestamp;pressure;altitude;pressure_sealevel;temperature;humidity
10261;BME280;5175;42.606;23.388;2023-06-05T00:00:52;94219.31;;;14.17;100.00
10261;BME280;5175;42.606;23.388;2023-06-05T00:03:20;94219.81;;;14.19;100.00
10261;BME280;5175;42.606;23.388;2023-06-05T00:05:46;94208.78;;;14.21;100.00
10261;BME280;5175;42.606;23.388;2023-06-05T00:08:13;94223.88;;;14.17;100.00
10261;BME280;5175;42.606;23.388;2023-06-05T00:10:40;94218.94;;;14.24;100.00
10261;BME280;5175;42.606;23.388;2023-06-05T00:13:09;94222.13;;;14.26;100.00
10261;BME280;5175;42.606;23.388;2023-06-05T00:15:36;94224.72;;;14.12;100.00
10261;BME280;5175;42.606;23.388;2023-06-05T00:18:03;94108.50;;;13.18;100.00
10261;BME280;5175;42.606;23.388;2023-06-05T00:20:31;94225.81;;;13.93;100.00
10261;BME280;5175;42.606;23.388;2023-06-05T00:22:58;94225.59;;;13.89;100.00
10261;BME280;5175;42.606;23.388;2023-06-05T00:25:25;94222.25;;;13.78;100.00
10261;BME280;5175;42.606;23.388;2023-06-05T00:27:52;94233.81;;;13.74;100.00
10261;BME280;5175;42.606;23.388;2023-06-05T00:30:19;94235.34;;;13.80;100.00
10261;BME280;5175;42.606;23.388;2023-06-05T00:32:45;94232.34;;;13.87;100.00
10261;BME280;5175;42.606;23.388;2023-06-05T00:35:12;94219.25;;;13.80;100.00
10261;BME280;5175;42.606;23.388;2023-06-05T00:37:42;94228.78;;;13.91;100.00
10261;BME280;5175;42.606;23.388;2023-06-05T00:40:12;94228.16;;;13.99;100.00
10261;BME280;5175;42.606;23.388;2023-06-05T00:42:42;94228.56;;;13.88;100.00
10261;BME280;5175;42.606;23.388;2023-06-05T00:45:09;94226.34;;;13.71;100.00
10261;BME280;5175;42.606;23.388;2023-06-05T00:47:36;94222.00;;;13.75;100.00
10261;BME280;5175;42.606;23.388;2023-06-05T00:50:03;94216.06;;;13.78;100.00
10261;BME280;5175;42.606;23.388;2023-06-05T00:52:31;94214.09;;;13.65;100.00
10261;BME280;5175;42.606;23.388;2023-06-05T00:55:01;94217.38;;;13.80;100.00
10261;BME280;5175;42.606;23.388;2023-06-05T00:57:28;94200.38;;;13.66;100.00
10261;BME280;5175;42.606;23.388;2023-06-05T00:59:59;94203.75;;;13.77;100.00
10261;BME280;5175;42.606;23.388;2023-06-05T01:02:27;94198.44;;;13.72;100.00
10261;BME280;5175;42.606;23.388;2023-06-05T01:04:54;94184.97;;;13.77;100.00
10261;BME280;5175;42.606;23.388;2023-06-05T01:07:22;94079.69;;;12.82;100.00
10261;BME280;5175;42.606;23.388;2023-06-05T01:09:49;94193.78;;;13.59;100.00
10261;BME280;5175;42.606;23.388;2023-06-05T01:12:20;94187.06;;;13.38;100.00
10261;BME280;5175;42.606;23.388;2023-06-05T01:14:52;94190.66;;;13.52;100.00
10261;BME280;5175;42.606;23.388;2023-06-05T01:17:24;94196.19;;;13.60;100.00
10261;BME280;5175;42.606;23.388;2023-06-05T01:19:51;94192.94;;;13.63;100.00
10261;BME280;5175;42.606;23.388;2023-06-05T01:22:18;94198.56;;;13.62;100.00
10261;BME280;5175;42.606;23.388;2023-06-05T01:24:46;94189.72;;;13.61;100.00
10261;BME280;5175;42.606;23.388;2023-06-05T01:27:15;94188.19;;;13.55;100.00
10261;BME280;5175;42.606;23.388;2023-06-05T01:29:51;94187.03;;;13.61;100.00
10261;BME280;5175;42.606;23.388;2023-06-05T01:32:23;94190.19;;;13.68;100.00
10261;BME280;5175;42.606;23.388;2023-06-05T01:34:53;94186.84;;;13.58;100.00
10261;BME280;5175;42.606;23.388;2023-06-05T01:37:21;94171.94;;;13.47;100.00
10261;BME280;5175;42.606;23.388;2023-06-05T01:39:53;94182.91;;;13.50;100.00
10261;BME280;5175;42.606;23.388;2023-06-05T01:42:22;94191.28;;;13.44;100.00
10261;BME280;5175;42.606;23.388;2023-06-05T01:44:50;94162.41;;;13.36;100.00
10261;BME280;5175;42.606;23.388;2023-06-05T01:47:19;94171.25;;;13.36;100.00
10261;BME280;5175;42.606;23.388;2023-06-05T01:49:46;94167.66;;;13.46;100.00
10261;BME280;5175;42.606;23.388;2023-06-05T01:52:13;94158.91;;;13.40;100.00
10261;BME280;5175;42.606;23.388;2023-06-05T01:54:40;94171.81;;;13.57;100.00
10261;BME280;5175;42.606;23.388;2023-06-05T01:57:09;94175.47;;;13.66;100.00
10261;BME280;5175;42.606;23.388;2023-06-05T01:59:36;94168.72;;;13.68;100.00
10261;BME280;5175;42.606;23.388;2023-06-05T02:02:03;94171.56;;;13.77;100.00
10261;BME280;5175;42.606;23.388;2023-06-05T02:04:30;94176.78;;;13.87;100.00
10261;BME280;5175;42.606;23.388;2023-06-05T02:06:57;94170.41;;;13.83;100.00
10261;BME280;5175;42.606;23.388;2023-06-05T02:09:28;94177.31;;;13.89;100.00
10261;BME280;5175;42.606;23.388;2023-06-05T02:11:58;94167.75;;;14.02;100.00
10261;BME280;5175;42.606;23.388;2023-06-05T02:14:30;94150.53;;;14.03;100.00
10261;BME280;5175;42.606;23.388;2023-06-05T02:17:01;94158.44;;;14.13;100.00
10261;BME280;5175;42.606;23.388;2023-06-05T02:19:30;94161.94;;;14.13;100.00
10261;BME280;5175;42.606;23.388;2023-06-05T02:21:56;94159.69;;;14.20;100.00
10261;BME280;5175;42.606;23.388;2023-06-05T02:24:23;94154.03;;;14.22;100.00
10261;BME280;5175;42.606;23.388;2023-06-05T02:26:50;94138.19;;;14.20;100.00
10261;BME280;5175;42.606;23.388;2023-06-05T02:29:17;94164.56;;;14.37;100.00
10261;BME280;5175;42.606;23.388;2023-06-05T02:31:53;94167.81;;;14.34;100.00
10261;BME280;5175;42.606;23.388;2023-06-05T02:34:20;94164.28;;;14.20;100.00
10261;BME280;5175;42.606;23.388;2023-06-05T02:36:47;94165.78;;;14.26;100.00
10261;BME280;5175;42.606;23.388;2023-06-05T02:39:15;94168.53;;;14.21;100.00
10261;BME280;5175;42.606;23.388;2023-06-05T02:41:43;94170.13;;;14.22;100.00
10261;BME280;5175;42.606;23.388;2023-06-05T02:44:10;94172.16;;;14.30;100.00
10261;BME280;5175;42.606;23.388;2023-06-05T02:46:36;94179.38;;;14.34;100.00
10261;BME280;5175;42.606;23.388;2023-06-05T02:49:05;94167.03;;;14.33;100.00
10261;BME280;5175;42.606;23.388;2023-06-05T02:51:31;94174.81;;;14.35;100.00
10261;BME280;5175;42.606;23.388;2023-06-05T02:53:58;94172.03;;;14.40;100.00
10261;BME280;5175;42.606;23.388;2023-06-05T02:56:25;94132.34;;;14.00;100.00
10261;BME280;5175;42.606;23.388;2023-06-05T02:58:53;94187.81;;;14.23;100.00
10261;BME280;5175;42.606;23.388;2023-06-05T03:01:22;94179.75;;;14.23;100.00
10261;BME280;5175;42.606;23.388;2023-06-05T03:03:50;94184.25;;;14.32;100.00
10261;BME280;5175;42.606;23.388;2023-06-05T03:06:23;94183.06;;;14.20;100.00
10261;BME280;5175;42.606;23.388;2023-06-05T03:08:52;94174.19;;;14.01;100.00
10261;BME280;5175;42.606;23.388;2023-06-05T03:11:21;94166.78;;;13.93;100.00
10261;BME280;5175;42.606;23.388;2023-06-05T03:13:50;94170.25;;;13.74;100.00
10261;BME280;5175;42.606;23.388;2023-06-05T03:16:17;94182.69;;;13.89;100.00
10261;BME280;5175;42.606;23.388;2023-06-05T03:18:46;94187.09;;;13.99;100.00
10261;BME280;5175;42.606;23.388;2023-06-05T03:21:13;94193.97;;;14.05;100.00
10261;BME280;5175;42.606;23.388;2023-06-05T03:23:41;94184.78;;;14.11;100.00
10261;BME280;5175;42.606;23.388;2023-06-05T03:26:08;94189.34;;;14.10;100.00
10261;BME280;5175;42.606;23.388;2023-06-05T03:28:34;94184.03;;;14.05;100.00
10261;BME280;5175;42.606;23.388;2023-06-05T03:31:03;94186.59;;;14.15;100.00
10261;BME280;5175;42.606;23.388;2023-06-05T03:33:30;94187.38;;;14.16;100.00
10261;BME280;5175;42.606;23.388;2023-06-05T03:35:57;94191.31;;;14.23;100.00
10261;BME280;5175;42.606;23.388;2023-06-05T03:38:25;94200.66;;;14.26;100.00
10261;BME280;5175;42.606;23.388;2023-06-05T03:40:53;94196.97;;;14.22;100.00
10261;BME280;5175;42.606;23.388;2023-06-05T03:43:20;94200.56;;;14.12;100.00
10261;BME280;5175;42.606;23.388;2023-06-05T03:45:52;94191.75;;;14.12;100.00
10261;BME280;5175;42.606;23.388;2023-06-05T03:48:19;94197.63;;;14.14;100.00
10261;BME280;5175;42.606;23.388;2023-06-05T03:50:46;94188.53;;;14.10;100.00
10261;BME280;5175;42.606;23.388;2023-06-05T03:53:16;94205.56;;;14.43;100.00
10261;BME280;5175;42.606;23.388;2023-06-05T03:55:44;94203.78;;;14.52;100.00
10261;BME280;5175;42.606;23.388;2023-06-05T03:58:13;94092.19;;;13.95;100.00
10261;BME280;5175;42.606;23.388;2023-06-05T04:00:41;94192.69;;;14.58;100.00
10261;BME280;5175;42.606;23.388;2023-06-05T04:03:08;94195.38;;;14.58;100.00
10261;BME280;5175;42.606;23.388;2023-06-05T04:05:36;94201.22;;;14.79;100.00
10261;BME280;5175;42.606;23.388;2023-06-05T04:08:03;94189.53;;;14.70;100.00
10261;BME280;5175;42.606;23.388;2023-06-05T04:10:30;94202.94;;;14.88;100.00
10261;BME280;5175;42.606;23.388;2023-06-05T04:12:57;94182.66;;;14.96;100.00
10261;BME280;5175;42.606;23.388;2023-06-05T04:15:26;94200.81;;;15.18;100.00
10261;BME280;5175;42.606;23.388;2023-06-05T04:17:53;94206.03;;;15.28;100.00
10261;BME280;5175;42.606;23.388;2023-06-05T04:20:20;94197.56;;;15.34;100.00
10261;BME280;5175;42.606;23.388;2023-06-05T04:22:46;94203.81;;;15.43;100.00
10261;BME280;5175;42.606;23.388;2023-06-05T04:25:14;94202.78;;;15.58;100.00
10261;BME280;5175;42.606;23.388;2023-06-05T04:27:42;94209.16;;;15.62;100.00
10261;BME280;5175;42.606;23.388;2023-06-05T04:30:11;94205.97;;;15.74;100.00
10261;BME280;5175;42.606;23.388;2023-06-05T04:32:39;94197.81;;;15.79;100.00
10261;BME280;5175;42.606;23.388;2023-06-05T04:35:08;94202.16;;;16.02;100.00
10261;BME280;5175;42.606;23.388;2023-06-05T04:37:36;94208.63;;;16.14;100.00
10261;BME280;5175;42.606;23.388;2023-06-05T04:40:07;94210.28;;;16.24;100.00
10261;BME280;5175;42.606;23.388;2023-06-05T04:42:36;94194.13;;;16.24;100.00
10261;BME280;5175;42.606;23.388;2023-06-05T04:45:04;94178.09;;;16.19;100.00
10261;BME280;5175;42.606;23.388;2023-06-05T04:47:32;94179.63;;;16.34;100.00
10261;BME280;5175;42.606;23.388;2023-06-05T04:50:01;94201.94;;;16.48;100.00
10261;BME280;5175;42.606;23.388;2023-06-05T04:52:33;94205.56;;;16.43;100.00
10261;BME280;5175;42.606;23.388;2023-06-05T04:55:00;94205.16;;;16.36;100.00
10261;BME280;5175;42.606;23.388;2023-06-05T04:57:28;94204.59;;;16.25;100.00
10261;BME280;5175;42.606;23.388;2023-06-05T04:59:56;94200.19;;;16.29;100.00
10261;BME280;5175;42.606;23.388;2023-06-05T05:02:23;94209.81;;;16.58;100.00
10261;BME280;5175;42.606;23.388;2023-06-05T05:04:51;94210.91;;;16.57;100.00
10261;BME280;5175;42.606;23.388;2023-06-05T05:07:19;94208.25;;;16.79;100.00
10261;BME280;5175;42.606;23.388;2023-06-05T05:09:48;94207.94;;;16.80;100.00
10261;BME280;5175;42.606;23.388;2023-06-05T05:12:15;94160.88;;;16.64;100.00
10261;BME280;5175;42.606;23.388;2023-06-05T05:14:42;94198.41;;;17.05;100.00
10261;BME280;5175;42.606;23.388;2023-06-05T05:17:10;94203.44;;;17.20;100.00
10261;BME280;5175;42.606;23.388;2023-06-05T05:19:36;94207.03;;;17.16;100.00
10261;BME280;5175;42.606;23.388;2023-06-05T05:22:06;94204.59;;;17.28;100.00
10261;BME280;5175;42.606;23.388;2023-06-05T05:24:34;94207.94;;;17.33;100.00
10261;BME280;5175;42.606;23.388;2023-06-05T05:27:01;94206.97;;;17.29;100.00
10261;BME280;5175;42.606;23.388;2023-06-05T05:29:27;94207.59;;;17.57;100.00
10261;BME280;5175;42.606;23.388;2023-06-05T05:31:54;94210.84;;;17.68;100.00
10261;BME280;5175;42.606;23.388;2023-06-05T05:34:21;94211.03;;;17.80;100.00
10261;BME280;5175;42.606;23.388;2023-06-05T05:36:48;94211.53;;;17.90;100.00
10261;BME280;5175;42.606;23.388;2023-06-05T05:39:15;94211.88;;;17.89;100.00
10261;BME280;5175;42.606;23.388;2023-06-05T05:41:43;94217.78;;;17.99;100.00
10261;BME280;5175;42.606;23.388;2023-06-05T05:44:10;94213.84;;;18.14;100.00
10261;BME280;5175;42.606;23.388;2023-06-05T05:46:37;94209.72;;;18.17;100.00
10261;BME280;5175;42.606;23.388;2023-06-05T05:49:03;94214.00;;;18.18;100.00
10261;BME280;5175;42.606;23.388;2023-06-05T05:51:30;94209.53;;;18.13;100.00
10261;BME280;5175;42.606;23.388;2023-06-05T05:53:57;94215.63;;;18.27;100.00
10261;BME280;5175;42.606;23.388;2023-06-05T05:56:24;94200.69;;;18.38;100.00
10261;BME280;5175;42.606;23.388;2023-06-05T05:58:52;94203.06;;;18.40;100.00
10261;BME280;5175;42.606;23.388;2023-06-05T06:01:19;94201.78;;;18.37;100.00
10261;BME280;5175;42.606;23.388;2023-06-05T06:03:47;94189.38;;;18.36;100.00
10261;BME280;5175;42.606;23.388;2023-06-05T06:06:14;94192.94;;;18.54;100.00
10261;BME280;5175;42.606;23.388;2023-06-05T06:08:41;94192.13;;;18.62;100.00
10261;BME280;5175;42.606;23.388;2023-06-05T06:11:08;94199.63;;;18.73;100.00
10261;BME280;5175;42.606;23.388;2023-06-05T06:13:35;94202.94;;;18.96;100.00
10261;BME280;5175;42.606;23.388;2023-06-05T06:16:03;94211.69;;;18.93;100.00
10261;BME280;5175;42.606;23.388;2023-06-05T06:18:30;94212.63;;;19.06;100.00
10261;BME280;5175;42.606;23.388;2023-06-05T06:20:57;94207.53;;;19.13;100.00
10261;BME280;5175;42.606;23.388;2023-06-05T06:23:24;94207.84;;;19.11;100.00
10261;BME280;5175;42.606;23.388;2023-06-05T06:25:51;94210.72;;;18.98;100.00
10261;BME280;5175;42.606;23.388;2023-06-05T06:28:18;94214.09;;;18.95;100.00
10261;BME280;5175;42.606;23.388;2023-06-05T06:30:45;94214.69;;;19.17;100.00
10261;BME280;5175;42.606;23.388;2023-06-05T06:33:13;94208.47;;;19.17;100.00
10261;BME280;5175;42.606;23.388;2023-06-05T06:35:40;94211.00;;;19.39;100.00
10261;BME280;5175;42.606;23.388;2023-06-05T06:38:06;94211.78;;;19.48;100.00
10261;BME280;5175;42.606;23.388;2023-06-05T06:40:33;94198.25;;;19.48;100.00
10261;BME280;5175;42.606;23.388;2023-06-05T06:43:00;94207.81;;;19.46;100.00
10261;BME280;5175;42.606;23.388;2023-06-05T06:45:27;94193.31;;;19.42;100.00
10261;BME280;5175;42.606;23.388;2023-06-05T06:47:54;94200.94;;;19.57;100.00
10261;BME280;5175;42.606;23.388;2023-06-05T06:50:22;94198.53;;;19.55;100.00
10261;BME280;5175;42.606;23.388;2023-06-05T06:52:49;94206.22;;;19.36;100.00
10261;BME280;5175;42.606;23.388;2023-06-05T06:55:16;94205.00;;;19.08;100.00
10261;BME280;5175;42.606;23.388;2023-06-05T06:57:42;94204.34;;;19.28;100.00
10261;BME280;5175;42.606;23.388;2023-06-05T07:00:10;94208.31;;;19.30;100.00
10261;BME280;5175;42.606;23.388;2023-06-05T07:02:39;94205.91;;;19.46;100.00
10261;BME280;5175;42.606;23.388;2023-06-05T07:05:07;94201.00;;;19.77;100.00
10261;BME280;5175;42.606;23.388;2023-06-05T07:07:36;94203.78;;;19.60;100.00
10261;BME280;5175;42.606;23.388;2023-06-05T07:10:03;94205.31;;;19.78;100.00
10261;BME280;5175;42.606;23.388;2023-06-05T07:12:30;94198.78;;;19.79;100.00
10261;BME280;5175;42.606;23.388;2023-06-05T07:14:56;94203.69;;;20.15;100.00
10261;BME280;5175;42.606;23.388;2023-06-05T07:17:23;94194.22;;;19.63;100.00
10261;BME280;5175;42.606;23.388;2023-06-05T07:19:52;94204.56;;;19.98;100.00
10261;BME280;5175;42.606;23.388;2023-06-05T07:22:19;94203.19;;;19.92;100.00
10261;BME280;5175;42.606;23.388;2023-06-05T07:24:48;94206.88;;;20.17;100.00
10261;BME280;5175;42.606;23.388;2023-06-05T07:27:15;94202.19;;;20.26;100.00
10261;BME280;5175;42.606;23.388;2023-06-05T07:29:41;94208.44;;;20.27;100.00
10261;BME280;5175;42.606;23.388;2023-06-05T07:32:08;94203.94;;;20.31;100.00
10261;BME280;5175;42.606;23.388;2023-06-05T07:34:35;94205.78;;;20.10;100.00
10261;BME280;5175;42.606;23.388;2023-06-05T07:37:02;94211.00;;;20.23;100.00
10261;BME280;5175;42.606;23.388;2023-06-05T07:39:29;94164.59;;;19.95;100.00
10261;BME280;5175;42.606;23.388;2023-06-05T07:41:58;94210.72;;;20.45;100.00
10261;BME280;5175;42.606;23.388;2023-06-05T07:44:25;94218.22;;;20.40;100.00
10261;BME280;5175;42.606;23.388;2023-06-05T07:46:51;94220.75;;;20.45;100.00
10261;BME280;5175;42.606;23.388;2023-06-05T07:49:18;94215.34;;;20.66;100.00
10261;BME280;5175;42.606;23.388;2023-06-05T07:51:46;94223.28;;;20.71;100.00
10261;BME280;5175;42.606;23.388;2023-06-05T07:54:15;94222.09;;;20.80;100.00
10261;BME280;5175;42.606;23.388;2023-06-05T07:56:42;94213.16;;;21.00;100.00
10261;BME280;5175;42.606;23.388;2023-06-05T07:59:11;94219.59;;;21.61;100.00
10261;BME280;5175;42.606;23.388;2023-06-05T08:01:39;94212.94;;;21.71;100.00
10261;BME280;5175;42.606;23.388;2023-06-05T08:04:06;94222.13;;;21.34;100.00
10261;BME280;5175;42.606;23.388;2023-06-05T08:06:35;94225.03;;;21.61;100.00
10261;BME280;5175;42.606;23.388;2023-06-05T08:09:03;94223.53;;;21.97;100.00
10261;BME280;5175;42.606;23.388;2023-06-05T08:11:31;94211.75;;;22.17;91.66
10261;BME280;5175;42.606;23.388;2023-06-05T08:13:58;94232.78;;;22.80;87.38
10261;BME280;5175;42.606;23.388;2023-06-05T08:16:29;94231.72;;;22.97;84.33
10261;BME280;5175;42.606;23.388;2023-06-05T08:18:56;94241.69;;;23.05;86.47
10261;BME280;5175;42.606;23.388;2023-06-05T08:21:22;94238.13;;;22.77;84.29
10261;BME280;5175;42.606;23.388;2023-06-05T08:23:49;94238.34;;;22.84;87.33
10261;BME280;5175;42.606;23.388;2023-06-05T08:26:18;94229.66;;;22.66;83.99
10261;BME280;5175;42.606;23.388;2023-06-05T08:28:45;94243.09;;;22.87;85.65
10261;BME280;5175;42.606;23.388;2023-06-05T08:31:12;94241.50;;;22.86;86.21
10261;BME280;5175;42.606;23.388;2023-06-05T08:33:41;94247.19;;;22.93;90.58
10261;BME280;5175;42.606;23.388;2023-06-05T08:36:08;94245.44;;;23.00;85.34
10261;BME280;5175;42.606;23.388;2023-06-05T08:38:35;94251.47;;;22.94;88.81
10261;BME280;5175;42.606;23.388;2023-06-05T08:41:03;94249.19;;;22.96;83.77
10261;BME280;5175;42.606;23.388;2023-06-05T08:43:35;94253.78;;;22.80;84.46
10261;BME280;5175;42.606;23.388;2023-06-05T08:46:05;94250.38;;;22.71;85.59
10261;BME280;5175;42.606;23.388;2023-06-05T08:48:33;94249.81;;;22.17;93.84
10261;BME280;5175;42.606;23.388;2023-06-05T08:51:06;94251.72;;;22.16;86.73
10261;BME280;5175;42.606;23.388;2023-06-05T08:53:38;94250.34;;;21.86;85.41
10261;BME280;5175;42.606;23.388;2023-06-05T08:56:06;94244.50;;;21.63;89.69
10261;BME280;5175;42.606;23.388;2023-06-05T08:58:34;94229.06;;;21.43;94.00
10261;BME280;5175;42.606;23.388;2023-06-05T09:01:01;94235.03;;;21.37;97.90
10261;BME280;5175;42.606;23.388;2023-06-05T09:03:28;94241.00;;;21.30;99.82
10261;BME280;5175;42.606;23.388;2023-06-05T09:05:55;94240.41;;;21.04;96.97
10261;BME280;5175;42.606;23.388;2023-06-05T09:08:31;94242.31;;;20.62;100.00
10261;BME280;5175;42.606;23.388;2023-06-05T09:11:23;94241.25;;;20.54;100.00
10261;BME280;5175;42.606;23.388;2023-06-05T09:13:51;94239.84;;;20.19;100.00
10261;BME280;5175;42.606;23.388;2023-06-05T09:16:22;94250.66;;;19.90;100.00
10261;BME280;5175;42.606;23.388;2023-06-05T09:18:53;94238.94;;;19.69;100.00
10261;BME280;5175;42.606;23.388;2023-06-05T09:21:21;94225.78;;;19.50;100.00
10261;BME280;5175;42.606;23.388;2023-06-05T09:24:10;94237.53;;;19.54;100.00
10261;BME280;5175;42.606;23.388;2023-06-05T09:26:48;94237.25;;;19.56;100.00
10261;BME280;5175;42.606;23.388;2023-06-05T09:29:20;94238.53;;;19.32;100.00
10261;BME280;5175;42.606;23.388;2023-06-05T09:31:48;94237.00;;;18.97;100.00
10261;BME280;5175;42.606;23.388;2023-06-05T09:34:23;94223.31;;;18.85;100.00
10261;BME280;5175;42.606;23.388;2023-06-05T09:36:50;94239.22;;;19.12;100.00
10261;BME280;5175;42.606;23.388;2023-06-05T09:39:22;94244.13;;;19.19;100.00
10261;BME280;5175;42.606;23.388;2023-06-05T09:41:50;94246.19;;;19.39;100.00
10261;BME280;5175;42.606;23.388;2023-06-05T09:44:18;94222.13;;;19.29;100.00
10261;BME280;5175;42.606;23.388;2023-06-05T09:46:55;94246.34;;;19.25;100.00
10261;BME280;5175;42.606;23.388;2023-06-05T09:49:28;94251.00;;;19.08;100.00
10261;BME280;5175;42.606;23.388;2023-06-05T09:51:59;94247.28;;;19.21;100.00
10261;BME280;5175;42.606;23.388;2023-06-05T09:54:28;94241.88;;;19.21;100.00
10261;BME280;5175;42.606;23.388;2023-06-05T09:56:58;94237.91;;;19.27;100.00
10261;BME280;5175;42.606;23.388;2023-06-05T09:59:30;94236.97;;;19.40;100.00
10261;BME280;5175;42.606;23.388;2023-06-05T10:02:01;94238.16;;;19.60;100.00
10261;BME280;5175;42.606;23.388;2023-06-05T10:04:32;94234.47;;;19.73;100.00
10261;BME280;5175;42.606;23.388;2023-06-05T10:07:05;94217.72;;;19.79;100.00
10261;BME280;5175;42.606;23.388;2023-06-05T10:09:33;94217.84;;;19.83;100.00
10261;BME280;5175;42.606;23.388;2023-06-05T10:12:03;94229.09;;;20.02;100.00
10261;BME280;5175;42.606;23.388;2023-06-05T10:14:30;94218.03;;;20.16;100.00
10261;BME280;5175;42.606;23.388;2023-06-05T10:17:01;94233.38;;;20.03;100.00
10261;BME280;5175;42.606;23.388;2023-06-05T10:19:29;94224.22;;;20.16;100.00
10261;BME280;5175;42.606;23.388;2023-06-05T10:21:56;94224.84;;;20.30;100.00
10261;BME280;5175;42.606;23.388;2023-06-05T10:24:25;94225.81;;;20.26;100.00
10261;BME280;5175;42.606;23.388;2023-06-05T10:27:23;94230.06;;;20.35;100.00
10261;BME280;5175;42.606;23.388;2023-06-05T10:33:02;94221.41;;;20.42;100.00
10261;BME280;5175;42.606;23.388;2023-06-05T10:35:44;94224.78;;;20.39;100.00
10261;BME280;5175;42.606;23.388;2023-06-05T10:38:17;94214.25;;;20.37;100.00
10261;BME280;5175;42.606;23.388;2023-06-05T10:40:46;94209.25;;;20.48;100.00
10261;BME280;5175;42.606;23.388;2023-06-05T10:43:30;94192.44;;;20.34;100.00
10261;BME280;5175;42.606;23.388;2023-06-05T10:45:58;94196.34;;;20.45;100.00
10261;BME280;5175;42.606;23.388;2023-06-05T10:51:34;94196.81;;;20.47;100.00
10261;BME280;5175;42.606;23.388;2023-06-05T10:54:03;94184.53;;;20.20;100.00
10261;BME280;5175;42.606;23.388;2023-06-05T10:56:56;94196.63;;;20.52;100.00
10261;BME280;5175;42.606;23.388;2023-06-05T10:59:30;94199.41;;;20.64;100.00
10261;BME280;5175;42.606;23.388;2023-06-05T11:02:25;94191.34;;;20.55;100.00
10261;BME280;5175;42.606;23.388;2023-06-05T11:05:08;94136.84;;;20.48;100.00
10261;BME280;5175;42.606;23.388;2023-06-05T11:07:39;94184.19;;;20.72;100.00
10261;BME280;5175;42.606;23.388;2023-06-05T11:10:08;94190.47;;;20.84;100.00
10261;BME280;5175;42.606;23.388;2023-06-05T11:12:56;94188.47;;;20.93;100.00
10261;BME280;5175;42.606;23.388;2023-06-05T11:15:41;94189.13;;;21.11;100.00
10261;BME280;5175;42.606;23.388;2023-06-05T11:18:30;94188.75;;;21.21;100.00
10261;BME280;5175;42.606;23.388;2023-06-05T11:20:58;94186.94;;;21.37;100.00
10261;BME280;5175;42.606;23.388;2023-06-05T11:23:26;94144.50;;;21.20;100.00
10261;BME280;5175;42.606;23.388;2023-06-05T11:28:59;94186.22;;;21.73;100.00
10261;BME280;5175;42.606;23.388;2023-06-05T11:31:30;94177.34;;;21.97;99.12
10261;BME280;5175;42.606;23.388;2023-06-05T11:33:58;94185.16;;;22.10;97.80
10261;BME280;5175;42.606;23.388;2023-06-05T11:36:25;94176.31;;;21.89;95.93
10261;BME280;5175;42.606;23.388;2023-06-05T11:38:55;94180.84;;;22.09;93.52
10261;BME280;5175;42.606;23.388;2023-06-05T11:41:23;94178.91;;;22.34;98.34
10261;BME280;5175;42.606;23.388;2023-06-05T11:43:51;94188.59;;;23.11;90.91
10261;BME280;5175;42.606;23.388;2023-06-05T11:46:18;94179.59;;;23.66;88.03
10261;BME280;5175;42.606;23.388;2023-06-05T11:48:46;94182.50;;;23.89;88.17
10261;BME280;5175;42.606;23.388;2023-06-05T11:51:16;94180.84;;;24.15;79.75
10261;BME280;5175;42.606;23.388;2023-06-05T11:53:45;94183.72;;;24.38;80.04
10261;BME280;5175;42.606;23.388;2023-06-05T11:56:15;94188.59;;;24.64;78.60
10261;BME280;5175;42.606;23.388;2023-06-05T11:58:43;94190.31;;;24.72;72.24
10261;BME280;5175;42.606;23.388;2023-06-05T12:01:14;94184.84;;;24.87;73.71
10261;BME280;5175;42.606;23.388;2023-06-05T12:03:44;94176.31;;;24.73;70.09
10261;BME280;5175;42.606;23.388;2023-06-05T12:06:12;94181.75;;;25.27;70.29
10261;BME280;5175;42.606;23.388;2023-06-05T12:08:43;94170.91;;;25.31;67.79
10261;BME280;5175;42.606;23.388;2023-06-05T12:11:20;94179.38;;;25.07;69.83
10261;BME280;5175;42.606;23.388;2023-06-05T12:13:48;94165.66;;;24.49;74.80
10261;BME280;5175;42.606;23.388;2023-06-05T12:16:17;94176.91;;;24.13;71.52
10261;BME280;5175;42.606;23.388;2023-06-05T12:18:44;94169.66;;;24.05;72.98
10261;BME280;5175;42.606;23.388;2023-06-05T12:21:21;94162.72;;;23.76;77.47
10261;BME280;5175;42.606;23.388;2023-06-05T12:23:50;94156.91;;;23.46;73.45
10261;BME280;5175;42.606;23.388;2023-06-05T12:26:18;94146.81;;;23.47;77.08
10261;BME280;5175;42.606;23.388;2023-06-05T12:28:45;94156.28;;;23.68;74.19
10261;BME280;5175;42.606;23.388;2023-06-05T12:31:31;94154.00;;;23.71;78.04
10261;BME280;5175;42.606;23.388;2023-06-05T12:33:58;94152.16;;;24.06;77.18
10261;BME280;5175;42.606;23.388;2023-06-05T12:36:26;94153.53;;;24.47;74.27
10261;BME280;5175;42.606;23.388;2023-06-05T12:38:54;94133.72;;;24.69;72.76
10261;BME280;5175;42.606;23.388;2023-06-05T12:41:21;94125.00;;;24.79;69.38
10261;BME280;5175;42.606;23.388;2023-06-05T12:43:59;94137.06;;;24.78;71.27
10261;BME280;5175;42.606;23.388;2023-06-05T12:46:26;94131.03;;;24.88;68.76
10261;BME280;5175;42.606;23.388;2023-06-05T12:48:53;94121.41;;;24.94;69.49
10261;BME280;5175;42.606;23.388;2023-06-05T12:51:20;94122.66;;;25.19;72.47
10261;BME280;5175;42.606;23.388;2023-06-05T12:53:48;94128.63;;;25.25;66.95
10261;BME280;5175;42.606;23.388;2023-06-05T12:56:15;94113.66;;;25.38;68.78
10261;BME280;5175;42.606;23.388;2023-06-05T12:58:42;94115.16;;;25.35;69.74
10261;BME280;5175;42.606;23.388;2023-06-05T13:01:09;94111.59;;;25.12;67.60
10261;BME280;5175;42.606;23.388;2023-06-05T13:03:36;94121.31;;;24.71;68.78
10261;BME280;5175;42.606;23.388;2023-06-05T13:06:03;94104.91;;;24.71;68.37
10261;BME280;5175;42.606;23.388;2023-06-05T13:08:30;94097.16;;;24.54;68.50
10261;BME280;5175;42.606;23.388;2023-06-05T13:10:59;94118.47;;;24.68;69.72